sensor_id;sensor_type;location;lat;lon;timestamp;temperature;humidity
82788;DHT22;72529;51.786;4.662;2023-10-31T00:02:12;12.17;86.47
82788;DHT22;72529;51.786;4.662;2023-10-31T00:04:37;12.22;85.92
82788;DHT22;72529;51.786;4.662;2023-10-31T00:07:03;12.19;86.00
82788;DHT22;72529;51.786;4.662;2023-10-31T00:09:28;12.19;86.00
82788;DHT22;72529;51.786;4.662;2023-10-31T00:11:54;12.20;86.08
82788;DHT22;72529;51.786;4.662;2023-10-31T00:14:19;12.19;85.93
82788;DHT22;72529;51.786;4.662;2023-10-31T00:16:45;12.17;86.26
82788;DHT22;72529;51.786;4.662;2023-10-31T00:19:10;12.20;86.32
82788;DHT22;72529;51.786;4.662;2023-10-31T00:21:36;12.30;86.08
82788;DHT22;72529;51.786;4.662;2023-10-31T00:24:01;12.32;85.93
82788;DHT22;72529;51.786;4.662;2023-10-31T00:26:28;12.30;86.09
82788;DHT22;72529;51.786;4.662;2023-10-31T00:28:53;12.34;86.03
82788;DHT22;72529;51.786;4.662;2023-10-31T00:31:19;12.40;85.79
82788;DHT22;72529;51.786;4.662;2023-10-31T00:33:44;12.46;85.73
82788;DHT22;72529;51.786;4.662;2023-10-31T00:36:10;12.47;85.67
82788;DHT22;72529;51.786;4.662;2023-10-31T00:38:35;12.50;85.47
82788;DHT22;72529;51.786;4.662;2023-10-31T00:41:01;12.58;85.26
82788;DHT22;72529;51.786;4.662;2023-10-31T00:43:26;12.64;85.26
82788;DHT22;72529;51.786;4.662;2023-10-31T00:45:52;12.67;85.06
82788;DHT22;72529;51.786;4.662;2023-10-31T00:48:17;12.71;84.61
82788;DHT22;72529;51.786;4.662;2023-10-31T00:50:43;12.64;84.79
82788;DHT22;72529;51.786;4.662;2023-10-31T00:53:09;12.61;84.79
82788;DHT22;72529;51.786;4.662;2023-10-31T00:55:34;12.56;84.97
82788;DHT22;72529;51.786;4.662;2023-10-31T00:58:00;12.48;85.09
82788;DHT22;72529;51.786;4.662;2023-10-31T01:00:25;12.46;85.44
82788;DHT22;72529;51.786;4.662;2023-10-31T01:02:50;12.43;85.32
82788;DHT22;72529;51.786;4.662;2023-10-31T01:05:16;12.38;85.74
82788;DHT22;72529;51.786;4.662;2023-10-31T01:07:41;12.44;85.74
82788;DHT22;72529;51.786;4.662;2023-10-31T01:10:07;12.38;85.72
82788;DHT22;72529;51.786;4.662;2023-10-31T01:12:33;12.32;85.86
82788;DHT22;72529;51.786;4.662;2023-10-31T01:14:58;12.27;86.36
82788;DHT22;72529;51.786;4.662;2023-10-31T01:17:24;12.32;86.63
82788;DHT22;72529;51.786;4.662;2023-10-31T01:19:49;12.37;86.07
82788;DHT22;72529;51.786;4.662;2023-10-31T01:22:14;12.37;86.32
82788;DHT22;72529;51.786;4.662;2023-10-31T01:24:40;12.36;86.40
82788;DHT22;72529;51.786;4.662;2023-10-31T01:27:05;12.33;86.59
82788;DHT22;72529;51.786;4.662;2023-10-31T01:29:31;12.34;86.61
82788;DHT22;72529;51.786;4.662;2023-10-31T01:31:56;12.40;86.29
82788;DHT22;72529;51.786;4.662;2023-10-31T01:34:22;12.27;86.89
82788;DHT22;72529;51.786;4.662;2023-10-31T01:36:48;12.19;87.32
82788;DHT22;72529;51.786;4.662;2023-10-31T01:39:13;12.10;87.79
82788;DHT22;72529;51.786;4.662;2023-10-31T01:41:41;12.22;87.26
82788;DHT22;72529;51.786;4.662;2023-10-31T01:44:07;12.17;87.38
82788;DHT22;72529;51.786;4.662;2023-10-31T01:46:33;12.09;87.29
82788;DHT22;72529;51.786;4.662;2023-10-31T01:48:58;12.10;87.16
82788;DHT22;72529;51.786;4.662;2023-10-31T01:51:25;11.97;87.16
82788;DHT22;72529;51.786;4.662;2023-10-31T01:53:52;12.09;87.00
82788;DHT22;72529;51.786;4.662;2023-10-31T01:56:19;12.07;87.25
82788;DHT22;72529;51.786;4.662;2023-10-31T01:58:45;12.02;87.25
82788;DHT22;72529;51.786;4.662;2023-10-31T02:01:12;12.03;87.58
82788;DHT22;72529;51.786;4.662;2023-10-31T02:03:38;12.03;87.28
82788;DHT22;72529;51.786;4.662;2023-10-31T02:06:04;11.97;87.16
82788;DHT22;72529;51.786;4.662;2023-10-31T02:08:30;11.94;87.22
82788;DHT22;72529;51.786;4.662;2023-10-31T02:10:55;12.04;86.72
82788;DHT22;72529;51.786;4.662;2023-10-31T02:13:21;11.83;86.83
82788;DHT22;72529;51.786;4.662;2023-10-31T02:15:47;11.83;87.06
82788;DHT22;72529;51.786;4.662;2023-10-31T02:18:13;11.85;86.75
82788;DHT22;72529;51.786;4.662;2023-10-31T02:20:38;11.85;86.70
82788;DHT22;72529;51.786;4.662;2023-10-31T02:23:05;11.79;86.13
82788;DHT22;72529;51.786;4.662;2023-10-31T02:25:31;11.75;87.26
82788;DHT22;72529;51.786;4.662;2023-10-31T02:27:57;11.85;86.44
82788;DHT22;72529;51.786;4.662;2023-10-31T02:30:24;11.76;86.15
82788;DHT22;72529;51.786;4.662;2023-10-31T02:32:50;11.73;86.82
82788;DHT22;72529;51.786;4.662;2023-10-31T02:35:17;11.78;86.47
82788;DHT22;72529;51.786;4.662;2023-10-31T02:37:46;11.75;86.34
82788;DHT22;72529;51.786;4.662;2023-10-31T02:40:12;11.75;85.96
82788;DHT22;72529;51.786;4.662;2023-10-31T02:42:38;11.78;86.27
82788;DHT22;72529;51.786;4.662;2023-10-31T02:45:03;11.75;86.25
82788;DHT22;72529;51.786;4.662;2023-10-31T02:47:29;11.75;86.43
82788;DHT22;72529;51.786;4.662;2023-10-31T02:49:55;11.76;86.34
82788;DHT22;72529;51.786;4.662;2023-10-31T02:52:20;11.79;86.26
82788;DHT22;72529;51.786;4.662;2023-10-31T02:54:46;11.78;86.44
82788;DHT22;72529;51.786;4.662;2023-10-31T02:57:11;11.71;86.75
82788;DHT22;72529;51.786;4.662;2023-10-31T02:59:37;11.81;86.43
82788;DHT22;72529;51.786;4.662;2023-10-31T03:02:02;11.78;86.04
82788;DHT22;72529;51.786;4.662;2023-10-31T03:04:28;11.71;86.86
82788;DHT22;72529;51.786;4.662;2023-10-31T03:06:53;11.71;86.50
82788;DHT22;72529;51.786;4.662;2023-10-31T03:09:19;11.63;87.03
82788;DHT22;72529;51.786;4.662;2023-10-31T03:11:44;11.73;86.76
82788;DHT22;72529;51.786;4.662;2023-10-31T03:14:10;11.79;86.50
82788;DHT22;72529;51.786;4.662;2023-10-31T03:16:35;11.78;86.64
82788;DHT22;72529;51.786;4.662;2023-10-31T03:19:00;11.86;86.28
82788;DHT22;72529;51.786;4.662;2023-10-31T03:21:26;11.89;86.21
82788;DHT22;72529;51.786;4.662;2023-10-31T03:23:52;11.81;86.69
82788;DHT22;72529;51.786;4.662;2023-10-31T03:26:21;11.78;86.79
82788;DHT22;72529;51.786;4.662;2023-10-31T03:28:47;11.78;87.08
82788;DHT22;72529;51.786;4.662;2023-10-31T03:31:14;11.81;87.10
82788;DHT22;72529;51.786;4.662;2023-10-31T03:33:40;11.86;86.63
82788;DHT22;72529;51.786;4.662;2023-10-31T03:36:06;11.85;86.96
82788;DHT22;72529;51.786;4.662;2023-10-31T03:38:32;11.79;87.48
82788;DHT22;72529;51.786;4.662;2023-10-31T03:40:57;11.81;87.73
82788;DHT22;72529;51.786;4.662;2023-10-31T03:43:23;11.87;87.17
82788;DHT22;72529;51.786;4.662;2023-10-31T03:45:48;11.93;87.06
82788;DHT22;72529;51.786;4.662;2023-10-31T03:48:16;11.94;87.10
82788;DHT22;72529;51.786;4.662;2023-10-31T03:50:42;11.96;87.10
82788;DHT22;72529;51.786;4.662;2023-10-31T03:53:08;12.00;86.94
82788;DHT22;72529;51.786;4.662;2023-10-31T03:55:33;12.06;86.97
82788;DHT22;72529;51.786;4.662;2023-10-31T03:57:59;12.04;86.96
82788;DHT22;72529;51.786;4.662;2023-10-31T04:00:24;12.06;86.82
82788;DHT22;72529;51.786;4.662;2023-10-31T04:02:50;12.04;86.99
82788;DHT22;72529;51.786;4.662;2023-10-31T04:05:15;12.07;87.04
82788;DHT22;72529;51.786;4.662;2023-10-31T04:07:41;12.10;86.78
82788;DHT22;72529;51.786;4.662;2023-10-31T04:10:07;12.20;86.68
82788;DHT22;72529;51.786;4.662;2023-10-31T04:12:33;12.19;86.63
82788;DHT22;72529;51.786;4.662;2023-10-31T04:14:59;12.26;86.18
82788;DHT22;72529;51.786;4.662;2023-10-31T04:17:24;12.27;86.19
82788;DHT22;72529;51.786;4.662;2023-10-31T04:19:50;12.30;86.21
82788;DHT22;72529;51.786;4.662;2023-10-31T04:22:16;12.36;86.12
82788;DHT22;72529;51.786;4.662;2023-10-31T04:24:41;12.36;85.81
82788;DHT22;72529;51.786;4.662;2023-10-31T04:27:06;12.32;85.62
82788;DHT22;72529;51.786;4.662;2023-10-31T04:29:32;12.30;85.64
82788;DHT22;72529;51.786;4.662;2023-10-31T04:31:58;12.29;85.57
82788;DHT22;72529;51.786;4.662;2023-10-31T04:34:23;12.32;85.00
82788;DHT22;72529;51.786;4.662;2023-10-31T04:36:48;12.26;85.32
82788;DHT22;72529;51.786;4.662;2023-10-31T04:39:14;12.22;85.33
82788;DHT22;72529;51.786;4.662;2023-10-31T04:41:39;12.17;85.27
82788;DHT22;72529;51.786;4.662;2023-10-31T04:44:05;12.27;85.43
82788;DHT22;72529;51.786;4.662;2023-10-31T04:46:31;12.30;84.73
82788;DHT22;72529;51.786;4.662;2023-10-31T04:48:56;12.23;85.28
82788;DHT22;72529;51.786;4.662;2023-10-31T04:51:22;12.23;85.13
82788;DHT22;72529;51.786;4.662;2023-10-31T04:53:47;12.22;84.99
82788;DHT22;72529;51.786;4.662;2023-10-31T04:56:14;12.23;85.22
82788;DHT22;72529;51.786;4.662;2023-10-31T04:58:43;12.19;84.88
82788;DHT22;72529;51.786;4.662;2023-10-31T05:01:11;12.22;85.09
82788;DHT22;72529;51.786;4.662;2023-10-31T05:03:36;12.20;84.97
82788;DHT22;72529;51.786;4.662;2023-10-31T05:06:02;12.13;85.38
82788;DHT22;72529;51.786;4.662;2023-10-31T05:08:29;12.09;85.22
82788;DHT22;72529;51.786;4.662;2023-10-31T05:10:54;12.09;85.35
82788;DHT22;72529;51.786;4.662;2023-10-31T05:13:20;12.12;85.24
82788;DHT22;72529;51.786;4.662;2023-10-31T05:15:45;12.09;85.29
82788;DHT22;72529;51.786;4.662;2023-10-31T05:18:11;12.10;85.51
82788;DHT22;72529;51.786;4.662;2023-10-31T05:20:36;12.14;85.18
82788;DHT22;72529;51.786;4.662;2023-10-31T05:23:02;12.16;85.39
82788;DHT22;72529;51.786;4.662;2023-10-31T05:25:27;12.13;85.32
82788;DHT22;72529;51.786;4.662;2023-10-31T05:27:52;12.07;85.45
82788;DHT22;72529;51.786;4.662;2023-10-31T05:30:18;12.09;85.56
82788;DHT22;72529;51.786;4.662;2023-10-31T05:32:43;12.03;85.50
82788;DHT22;72529;51.786;4.662;2023-10-31T05:35:10;11.97;85.56
82788;DHT22;72529;51.786;4.662;2023-10-31T05:37:35;11.97;85.94
82788;DHT22;72529;51.786;4.662;2023-10-31T05:40:01;12.04;85.63
82788;DHT22;72529;51.786;4.662;2023-10-31T05:42:27;12.03;85.04
82788;DHT22;72529;51.786;4.662;2023-10-31T05:44:53;12.03;84.97
82788;DHT22;72529;51.786;4.662;2023-10-31T05:47:19;12.06;84.61
82788;DHT22;72529;51.786;4.662;2023-10-31T05:49:44;12.04;84.90
82788;DHT22;72529;51.786;4.662;2023-10-31T05:52:10;12.07;85.00
82788;DHT22;72529;51.786;4.662;2023-10-31T05:54:35;12.09;84.24
82788;DHT22;72529;51.786;4.662;2023-10-31T05:57:01;11.97;84.44
82788;DHT22;72529;51.786;4.662;2023-10-31T05:59:26;11.92;85.25
82788;DHT22;72529;51.786;4.662;2023-10-31T06:01:51;11.94;85.03
82788;DHT22;72529;51.786;4.662;2023-10-31T06:04:17;11.89;85.29
82788;DHT22;72529;51.786;4.662;2023-10-31T06:06:42;11.92;85.80
82788;DHT22;72529;51.786;4.662;2023-10-31T06:09:08;11.89;85.70
82788;DHT22;72529;51.786;4.662;2023-10-31T06:11:35;11.89;86.07
82788;DHT22;72529;51.786;4.662;2023-10-31T06:14:01;11.90;86.19
82788;DHT22;72529;51.786;4.662;2023-10-31T06:16:26;11.93;85.87
82788;DHT22;72529;51.786;4.662;2023-10-31T06:18:51;11.96;85.67
82788;DHT22;72529;51.786;4.662;2023-10-31T06:21:17;12.00;85.65
82788;DHT22;72529;51.786;4.662;2023-10-31T06:23:42;11.99;85.32
82788;DHT22;72529;51.786;4.662;2023-10-31T06:26:10;11.99;85.11
82788;DHT22;72529;51.786;4.662;2023-10-31T06:28:36;11.92;85.13
82788;DHT22;72529;51.786;4.662;2023-10-31T06:31:02;11.92;84.94
82788;DHT22;72529;51.786;4.662;2023-10-31T06:33:28;11.86;85.01
82788;DHT22;72529;51.786;4.662;2023-10-31T06:35:54;11.85;85.36
82788;DHT22;72529;51.786;4.662;2023-10-31T06:38:19;11.82;85.42
82788;DHT22;72529;51.786;4.662;2023-10-31T06:40:45;11.82;85.44
82788;DHT22;72529;51.786;4.662;2023-10-31T06:43:10;11.83;85.51
82788;DHT22;72529;51.786;4.662;2023-10-31T06:45:36;11.85;85.42
82788;DHT22;72529;51.786;4.662;2023-10-31T06:48:02;11.86;85.24
82788;DHT22;72529;51.786;4.662;2023-10-31T06:50:27;11.87;84.98
82788;DHT22;72529;51.786;4.662;2023-10-31T06:52:53;11.90;84.89
82788;DHT22;72529;51.786;4.662;2023-10-31T06:55:19;11.85;84.94
82788;DHT22;72529;51.786;4.662;2023-10-31T06:57:44;11.86;85.40
82788;DHT22;72529;51.786;4.662;2023-10-31T07:00:11;11.83;85.32
82788;DHT22;72529;51.786;4.662;2023-10-31T07:02:37;11.83;85.43
82788;DHT22;72529;51.786;4.662;2023-10-31T07:05:02;11.86;85.33
82788;DHT22;72529;51.786;4.662;2023-10-31T07:07:29;11.79;85.55
82788;DHT22;72529;51.786;4.662;2023-10-31T07:09:54;11.81;85.63
82788;DHT22;72529;51.786;4.662;2023-10-31T07:12:19;11.82;85.61
82788;DHT22;72529;51.786;4.662;2023-10-31T07:14:45;11.82;85.59
82788;DHT22;72529;51.786;4.662;2023-10-31T07:17:10;11.79;85.74
82788;DHT22;72529;51.786;4.662;2023-10-31T07:19:36;11.82;85.77
82788;DHT22;72529;51.786;4.662;2023-10-31T07:22:02;11.94;85.77
82788;DHT22;72529;51.786;4.662;2023-10-31T07:24:27;11.96;85.71
82788;DHT22;72529;51.786;4.662;2023-10-31T07:26:54;11.97;85.80
82788;DHT22;72529;51.786;4.662;2023-10-31T07:29:19;12.00;85.67
82788;DHT22;72529;51.786;4.662;2023-10-31T07:31:45;11.99;86.11
82788;DHT22;72529;51.786;4.662;2023-10-31T07:34:10;12.04;86.45
82788;DHT22;72529;51.786;4.662;2023-10-31T07:36:39;12.10;86.79
82788;DHT22;72529;51.786;4.662;2023-10-31T07:39:06;12.22;86.68
82788;DHT22;72529;51.786;4.662;2023-10-31T07:41:32;12.32;86.99
82788;DHT22;72529;51.786;4.662;2023-10-31T07:43:58;12.43;86.92
82788;DHT22;72529;51.786;4.662;2023-10-31T07:46:23;12.48;86.38
82788;DHT22;72529;51.786;4.662;2023-10-31T07:48:49;12.54;86.35
82788;DHT22;72529;51.786;4.662;2023-10-31T07:51:14;12.53;86.25
82788;DHT22;72529;51.786;4.662;2023-10-31T07:53:41;12.63;85.60
82788;DHT22;72529;51.786;4.662;2023-10-31T07:56:17;12.57;85.65
82788;DHT22;72529;51.786;4.662;2023-10-31T07:58:44;12.53;85.67
82788;DHT22;72529;51.786;4.662;2023-10-31T08:01:09;12.56;85.85
82788;DHT22;72529;51.786;4.662;2023-10-31T08:03:38;12.53;85.78
82788;DHT22;72529;51.786;4.662;2023-10-31T08:06:06;12.54;85.42
82788;DHT22;72529;51.786;4.662;2023-10-31T08:08:32;12.53;86.00
82788;DHT22;72529;51.786;4.662;2023-10-31T08:10:58;12.57;86.21
82788;DHT22;72529;51.786;4.662;2023-10-31T08:13:24;12.69;85.88
82788;DHT22;72529;51.786;4.662;2023-10-31T08:15:49;12.69;85.65
82788;DHT22;72529;51.786;4.662;2023-10-31T08:18:15;12.69;85.89
82788;DHT22;72529;51.786;4.662;2023-10-31T08:20:40;12.83;86.05
82788;DHT22;72529;51.786;4.662;2023-10-31T08:23:06;12.87;85.68
82788;DHT22;72529;51.786;4.662;2023-10-31T08:25:31;12.81;85.69
82788;DHT22;72529;51.786;4.662;2023-10-31T08:27:56;12.91;85.86
82788;DHT22;72529;51.786;4.662;2023-10-31T08:30:22;12.97;85.84
82788;DHT22;72529;51.786;4.662;2023-10-31T08:32:47;13.05;85.62
82788;DHT22;72529;51.786;4.662;2023-10-31T08:35:13;13.01;85.31
82788;DHT22;72529;51.786;4.662;2023-10-31T08:37:38;13.14;85.52
82788;DHT22;72529;51.786;4.662;2023-10-31T08:40:04;13.08;84.87
82788;DHT22;72529;51.786;4.662;2023-10-31T08:42:30;13.07;85.53
82788;DHT22;72529;51.786;4.662;2023-10-31T08:44:56;13.15;85.98
82788;DHT22;72529;51.786;4.662;2023-10-31T08:47:21;13.23;85.92
82788;DHT22;72529;51.786;4.662;2023-10-31T08:49:46;13.30;84.79
82788;DHT22;72529;51.786;4.662;2023-10-31T08:52:12;13.28;84.32
82788;DHT22;72529;51.786;4.662;2023-10-31T08:54:37;13.28;84.19
82788;DHT22;72529;51.786;4.662;2023-10-31T08:57:03;13.20;84.35
82788;DHT22;72529;51.786;4.662;2023-10-31T08:59:28;13.04;84.58
82788;DHT22;72529;51.786;4.662;2023-10-31T09:01:54;13.07;85.46
82788;DHT22;72529;51.786;4.662;2023-10-31T09:04:19;13.11;86.57
82788;DHT22;72529;51.786;4.662;2023-10-31T09:06:44;13.28;85.59
82788;DHT22;72529;51.786;4.662;2023-10-31T09:09:10;13.35;84.79
82788;DHT22;72529;51.786;4.662;2023-10-31T09:11:35;13.34;84.63
82788;DHT22;72529;51.786;4.662;2023-10-31T09:14:01;13.30;84.39
82788;DHT22;72529;51.786;4.662;2023-10-31T09:16:26;13.29;84.23
82788;DHT22;72529;51.786;4.662;2023-10-31T09:18:52;13.11;84.07
82788;DHT22;72529;51.786;4.662;2023-10-31T09:21:17;13.01;85.02
82788;DHT22;72529;51.786;4.662;2023-10-31T09:23:43;13.19;85.58
82788;DHT22;72529;51.786;4.662;2023-10-31T09:26:08;13.28;84.38
82788;DHT22;72529;51.786;4.662;2023-10-31T09:28:35;13.35;84.35
82788;DHT22;72529;51.786;4.662;2023-10-31T09:31:01;13.50;83.51
82788;DHT22;72529;51.786;4.662;2023-10-31T09:33:27;13.45;84.09
82788;DHT22;72529;51.786;4.662;2023-10-31T09:35:52;13.49;85.04
82788;DHT22;72529;51.786;4.662;2023-10-31T09:38:17;13.53;84.15
82788;DHT22;72529;51.786;4.662;2023-10-31T09:40:43;13.60;84.36
82788;DHT22;72529;51.786;4.662;2023-10-31T09:43:09;13.67;83.66
82788;DHT22;72529;51.786;4.662;2023-10-31T09:45:34;13.70;82.80
82788;DHT22;72529;51.786;4.662;2023-10-31T09:48:01;13.72;83.40
82788;DHT22;72529;51.786;4.662;2023-10-31T09:50:29;13.67;83.22
82788;DHT22;72529;51.786;4.662;2023-10-31T09:52:56;13.60;83.07
82788;DHT22;72529;51.786;4.662;2023-10-31T09:55:22;13.45;84.05
82788;DHT22;72529;51.786;4.662;2023-10-31T09:57:48;13.30;82.89
82788;DHT22;72529;51.786;4.662;2023-10-31T10:00:13;13.09;84.10
82788;DHT22;72529;51.786;4.662;2023-10-31T10:02:40;13.04;84.87
82788;DHT22;72529;51.786;4.662;2023-10-31T10:05:07;13.05;84.42
82788;DHT22;72529;51.786;4.662;2023-10-31T10:07:34;12.94;85.11
82788;DHT22;72529;51.786;4.662;2023-10-31T10:10:01;13.05;84.83
82788;DHT22;72529;51.786;4.662;2023-10-31T10:12:27;13.11;84.01
82788;DHT22;72529;51.786;4.662;2023-10-31T10:14:52;13.25;83.83
82788;DHT22;72529;51.786;4.662;2023-10-31T10:17:22;13.15;83.52
82788;DHT22;72529;51.786;4.662;2023-10-31T10:19:48;13.08;83.41
82788;DHT22;72529;51.786;4.662;2023-10-31T10:22:13;12.95;83.63
82788;DHT22;72529;51.786;4.662;2023-10-31T10:24:41;12.88;84.53
82788;DHT22;72529;51.786;4.662;2023-10-31T10:27:07;12.84;84.04
82788;DHT22;72529;51.786;4.662;2023-10-31T10:29:34;12.84;83.94
82788;DHT22;72529;51.786;4.662;2023-10-31T10:32:00;12.77;84.70
82788;DHT22;72529;51.786;4.662;2023-10-31T10:34:26;12.80;84.84
82788;DHT22;72529;51.786;4.662;2023-10-31T10:36:53;12.80;84.62
82788;DHT22;72529;51.786;4.662;2023-10-31T10:39:21;12.83;84.30
82788;DHT22;72529;51.786;4.662;2023-10-31T10:41:53;12.77;85.11
82788;DHT22;72529;51.786;4.662;2023-10-31T10:44:34;12.83;85.29
82788;DHT22;72529;51.786;4.662;2023-10-31T10:47:05;12.92;85.40
82788;DHT22;72529;51.786;4.662;2023-10-31T10:49:36;13.01;84.43
82788;DHT22;72529;51.786;4.662;2023-10-31T10:52:16;12.97;84.88
82788;DHT22;72529;51.786;4.662;2023-10-31T10:55:01;13.05;84.23
82788;DHT22;72529;51.786;4.662;2023-10-31T10:57:52;13.05;84.51
82788;DHT22;72529;51.786;4.662;2023-10-31T11:00:20;13.15;84.69
82788;DHT22;72529;51.786;4.662;2023-10-31T11:02:51;13.28;83.41
82788;DHT22;72529;51.786;4.662;2023-10-31T11:05:18;13.15;84.36
82788;DHT22;72529;51.786;4.662;2023-10-31T11:07:44;13.32;84.35
82788;DHT22;72529;51.786;4.662;2023-10-31T11:10:11;13.36;83.38
82788;DHT22;72529;51.786;4.662;2023-10-31T11:12:37;13.40;84.53
82788;DHT22;72529;51.786;4.662;2023-10-31T11:15:05;13.63;84.48
82788;DHT22;72529;51.786;4.662;2023-10-31T11:17:34;13.90;82.30
82788;DHT22;72529;51.786;4.662;2023-10-31T11:20:02;13.97;81.90
82788;DHT22;72529;51.786;4.662;2023-10-31T11:22:41;13.96;82.58
82788;DHT22;72529;51.786;4.662;2023-10-31T11:25:14;13.91;82.13
82788;DHT22;72529;51.786;4.662;2023-10-31T11:27:40;13.84;82.24
82788;DHT22;72529;51.786;4.662;2023-10-31T11:30:28;13.83;82.62
82788;DHT22;72529;51.786;4.662;2023-10-31T11:32:58;13.76;81.87
82788;DHT22;72529;51.786;4.662;2023-10-31T11:35:24;13.77;81.69
82788;DHT22;72529;51.786;4.662;2023-10-31T11:38:01;13.70;82.24
82788;DHT22;72529;51.786;4.662;2023-10-31T11:40:29;13.56;82.27
82788;DHT22;72529;51.786;4.662;2023-10-31T11:42:59;13.59;83.27
82788;DHT22;72529;51.786;4.662;2023-10-31T11:47:56;13.86;81.45
82788;DHT22;72529;51.786;4.662;2023-10-31T11:50:24;13.89;81.10
82788;DHT22;72529;51.786;4.662;2023-10-31T11:52:59;13.79;81.40
82788;DHT22;72529;51.786;4.662;2023-10-31T11:55:25;13.69;81.60
82788;DHT22;72529;51.786;4.662;2023-10-31T11:57:51;13.59;82.44
82788;DHT22;72529;51.786;4.662;2023-10-31T12:00:23;13.69;82.55
82788;DHT22;72529;51.786;4.662;2023-10-31T12:03:00;13.80;80.82
82788;DHT22;72529;51.786;4.662;2023-10-31T12:05:25;13.79;82.05
82788;DHT22;72529;51.786;4.662;2023-10-31T12:07:51;13.79;80.85
82788;DHT22;72529;51.786;4.662;2023-10-31T12:10:28;13.73;81.99
82788;DHT22;72529;51.786;4.662;2023-10-31T12:12:56;13.72;81.53
82788;DHT22;72529;51.786;4.662;2023-10-31T12:15:22;13.62;81.30
82788;DHT22;72529;51.786;4.662;2023-10-31T12:17:48;13.63;82.15
82788;DHT22;72529;51.786;4.662;2023-10-31T12:20:14;13.77;81.66
82788;DHT22;72529;51.786;4.662;2023-10-31T12:22:42;13.72;81.81
82788;DHT22;72529;51.786;4.662;2023-10-31T12:25:09;13.69;82.58
82788;DHT22;72529;51.786;4.662;2023-10-31T12:27:46;13.73;82.20
82788;DHT22;72529;51.786;4.662;2023-10-31T12:30:15;13.74;82.36
82788;DHT22;72529;51.786;4.662;2023-10-31T12:32:41;13.80;82.10
82788;DHT22;72529;51.786;4.662;2023-10-31T12:35:12;13.93;81.80
82788;DHT22;72529;51.786;4.662;2023-10-31T12:37:45;13.97;81.04
82788;DHT22;72529;51.786;4.662;2023-10-31T12:40:17;14.00;80.80
82788;DHT22;72529;51.786;4.662;2023-10-31T12:42:45;13.94;81.26
82788;DHT22;72529;51.786;4.662;2023-10-31T12:45:12;13.99;81.44
82788;DHT22;72529;51.786;4.662;2023-10-31T12:47:37;14.00;80.59
82788;DHT22;72529;51.786;4.662;2023-10-31T12:50:15;14.00;80.66
82788;DHT22;72529;51.786;4.662;2023-10-31T12:52:48;14.03;79.97
82788;DHT22;72529;51.786;4.662;2023-10-31T12:55:15;14.02;79.99
82788;DHT22;72529;51.786;4.662;2023-10-31T12:57:40;13.97;80.07
82788;DHT22;72529;51.786;4.662;2023-10-31T13:00:07;13.94;80.59
82788;DHT22;72529;51.786;4.662;2023-10-31T13:02:35;13.89;80.84
82788;DHT22;72529;51.786;4.662;2023-10-31T13:05:15;13.84;80.99
82788;DHT22;72529;51.786;4.662;2023-10-31T13:08:01;13.91;81.02
82788;DHT22;72529;51.786;4.662;2023-10-31T13:10:30;13.90;80.83
82788;DHT22;72529;51.786;4.662;2023-10-31T13:12:58;13.91;80.88
82788;DHT22;72529;51.786;4.662;2023-10-31T13:15:24;13.91;80.87
82788;DHT22;72529;51.786;4.662;2023-10-31T13:17:50;13.93;81.28
82788;DHT22;72529;51.786;4.662;2023-10-31T13:20:19;13.91;81.57
82788;DHT22;72529;51.786;4.662;2023-10-31T13:22:45;13.84;81.52
82788;DHT22;72529;51.786;4.662;2023-10-31T13:25:13;13.90;81.55
82788;DHT22;72529;51.786;4.662;2023-10-31T13:27:41;13.82;81.55
82788;DHT22;72529;51.786;4.662;2023-10-31T13:30:11;13.82;81.15
82788;DHT22;72529;51.786;4.662;2023-10-31T13:32:37;13.74;81.32
82788;DHT22;72529;51.786;4.662;2023-10-31T13:35:04;13.73;81.19
82788;DHT22;72529;51.786;4.662;2023-10-31T13:37:30;13.79;81.39
82788;DHT22;72529;51.786;4.662;2023-10-31T13:39:55;13.77;81.59
82788;DHT22;72529;51.786;4.662;2023-10-31T13:42:21;13.72;81.12
82788;DHT22;72529;51.786;4.662;2023-10-31T13:44:47;13.67;81.16
82788;DHT22;72529;51.786;4.662;2023-10-31T13:47:13;13.66;80.64
82788;DHT22;72529;51.786;4.662;2023-10-31T13:49:39;13.46;81.90
82788;DHT22;72529;51.786;4.662;2023-10-31T13:52:04;13.52;81.13
82788;DHT22;72529;51.786;4.662;2023-10-31T13:54:34;13.43;81.51
82788;DHT22;72529;51.786;4.662;2023-10-31T13:57:00;13.42;81.46
82788;DHT22;72529;51.786;4.662;2023-10-31T13:59:25;13.32;82.33
82788;DHT22;72529;51.786;4.662;2023-10-31T14:01:51;13.32;82.50
82788;DHT22;72529;51.786;4.662;2023-10-31T14:04:18;13.34;82.51
82788;DHT22;72529;51.786;4.662;2023-10-31T14:06:44;13.38;82.45
82788;DHT22;72529;51.786;4.662;2023-10-31T14:09:11;13.45;81.96
82788;DHT22;72529;51.786;4.662;2023-10-31T14:11:38;13.42;82.23
82788;DHT22;72529;51.786;4.662;2023-10-31T14:14:04;13.39;82.36
82788;DHT22;72529;51.786;4.662;2023-10-31T14:16:38;13.30;82.77
82788;DHT22;72529;51.786;4.662;2023-10-31T14:19:04;13.30;82.63
82788;DHT22;72529;51.786;4.662;2023-10-31T14:21:30;13.20;82.96
82788;DHT22;72529;51.786;4.662;2023-10-31T14:23:55;13.11;82.77
82788;DHT22;72529;51.786;4.662;2023-10-31T14:26:21;13.01;83.57
82788;DHT22;72529;51.786;4.662;2023-10-31T14:28:47;13.04;84.12
82788;DHT22;72529;51.786;4.662;2023-10-31T14:31:13;13.19;83.84
82788;DHT22;72529;51.786;4.662;2023-10-31T14:33:39;13.22;83.99
82788;DHT22;72529;51.786;4.662;2023-10-31T14:36:05;13.23;83.54
82788;DHT22;72529;51.786;4.662;2023-10-31T14:38:31;13.19;83.60
82788;DHT22;72529;51.786;4.662;2023-10-31T14:40:56;13.22;83.33
82788;DHT22;72529;51.786;4.662;2023-10-31T14:43:21;13.20;83.54
82788;DHT22;72529;51.786;4.662;2023-10-31T14:45:47;13.18;83.50
82788;DHT22;72529;51.786;4.662;2023-10-31T14:48:12;13.19;83.63
82788;DHT22;72529;51.786;4.662;2023-10-31T14:50:38;13.26;83.51
82788;DHT22;72529;51.786;4.662;2023-10-31T14:53:05;13.34;83.10
82788;DHT22;72529;51.786;4.662;2023-10-31T14:55:30;13.34;83.39
82788;DHT22;72529;51.786;4.662;2023-10-31T14:57:56;13.38;84.03
82788;DHT22;72529;51.786;4.662;2023-10-31T15:00:21;13.39;83.93
82788;DHT22;72529;51.786;4.662;2023-10-31T15:02:47;13.43;84.00
82788;DHT22;72529;51.786;4.662;2023-10-31T15:05:12;13.49;84.02
82788;DHT22;72529;51.786;4.662;2023-10-31T15:07:38;13.50;83.87
82788;DHT22;72529;51.786;4.662;2023-10-31T15:10:05;13.45;83.18
82788;DHT22;72529;51.786;4.662;2023-10-31T15:12:31;13.38;84.20
82788;DHT22;72529;51.786;4.662;2023-10-31T15:14:57;13.36;84.22
82788;DHT22;72529;51.786;4.662;2023-10-31T15:17:22;13.39;83.95
82788;DHT22;72529;51.786;4.662;2023-10-31T15:19:48;13.43;83.81
82788;DHT22;72529;51.786;4.662;2023-10-31T15:22:13;13.50;83.56
82788;DHT22;72529;51.786;4.662;2023-10-31T15:24:39;13.49;83.19
82788;DHT22;72529;51.786;4.662;2023-10-31T15:27:04;13.43;83.19
82788;DHT22;72529;51.786;4.662;2023-10-31T15:29:30;13.43;83.59